sensor_id;sensor_type;location;lat;lon;timestamp;temperature;humidity
37460;DHT22;23318;50.966;5.284;2022-12-17T00:02:39;0.20;99.90
37460;DHT22;23318;50.966;5.284;2022-12-17T00:05:23;0.00;99.90
37460;DHT22;23318;50.966;5.284;2022-12-17T00:08:08;0.10;99.90
37460;DHT22;23318;50.966;5.284;2022-12-17T00:10:52;0.00;99.90
37460;DHT22;23318;50.966;5.284;2022-12-17T00:13:36;0.00;99.90
37460;DHT22;23318;50.966;5.284;2022-12-17T00:16:20;0.00;99.90
37460;DHT22;23318;50.966;5.284;2022-12-17T00:19:04;0.10;99.90
37460;DHT22;23318;50.966;5.284;2022-12-17T00:21:49;-0.10;99.90
37460;DHT22;23318;50.966;5.284;2022-12-17T00:24:33;-0.20;99.90
37460;DHT22;23318;50.966;5.284;2022-12-17T00:27:17;-0.30;99.90
37460;DHT22;23318;50.966;5.284;2022-12-17T00:30:01;-0.30;99.90
37460;DHT22;23318;50.966;5.284;2022-12-17T00:32:45;-0.30;99.90
37460;DHT22;23318;50.966;5.284;2022-12-17T00:35:29;-0.40;99.90
37460;DHT22;23318;50.966;5.284;2022-12-17T00:38:17;-0.40;99.90
37460;DHT22;23318;50.966;5.284;2022-12-17T00:41:02;-0.40;99.90
37460;DHT22;23318;50.966;5.284;2022-12-17T00:43:47;-0.40;99.90
37460;DHT22;23318;50.966;5.284;2022-12-17T00:46:38;-0.40;99.90
37460;DHT22;23318;50.966;5.284;2022-12-17T00:49:22;-0.60;99.90
37460;DHT22;23318;50.966;5.284;2022-12-17T00:52:06;-0.60;99.90
37460;DHT22;23318;50.966;5.284;2022-12-17T00:54:50;-0.60;99.90
37460;DHT22;23318;50.966;5.284;2022-12-17T00:57:35;-0.50;99.90
37460;DHT22;23318;50.966;5.284;2022-12-17T01:00:19;-0.60;99.90
37460;DHT22;23318;50.966;5.284;2022-12-17T01:03:08;-0.70;99.90
37460;DHT22;23318;50.966;5.284;2022-12-17T01:05:53;-0.70;99.90
37460;DHT22;23318;50.966;5.284;2022-12-17T01:08:38;-0.80;99.90
37460;DHT22;23318;50.966;5.284;2022-12-17T01:11:22;-0.80;99.90
37460;DHT22;23318;50.966;5.284;2022-12-17T01:14:07;-1.20;99.90
37460;DHT22;23318;50.966;5.284;2022-12-17T01:16:52;-1.20;99.90
37460;DHT22;23318;50.966;5.284;2022-12-17T01:19:36;-1.10;99.90
37460;DHT22;23318;50.966;5.284;2022-12-17T01:22:20;-1.00;99.90
37460;DHT22;23318;50.966;5.284;2022-12-17T01:25:04;-0.90;99.90
37460;DHT22;23318;50.966;5.284;2022-12-17T01:27:50;-1.00;99.90
37460;DHT22;23318;50.966;5.284;2022-12-17T01:30:35;-1.10;99.90
37460;DHT22;23318;50.966;5.284;2022-12-17T01:33:20;-1.20;99.90
37460;DHT22;23318;50.966;5.284;2022-12-17T01:36:04;-1.20;99.90
37460;DHT22;23318;50.966;5.284;2022-12-17T01:38:48;-1.20;99.90
37460;DHT22;23318;50.966;5.284;2022-12-17T01:41:32;-1.10;99.90
37460;DHT22;23318;50.966;5.284;2022-12-17T01:47:27;-1.20;99.90
37460;DHT22;23318;50.966;5.284;2022-12-17T01:50:14;-1.30;99.90
37460;DHT22;23318;50.966;5.284;2022-12-17T01:53:02;-1.40;99.90
37460;DHT22;23318;50.966;5.284;2022-12-17T01:55:47;-1.30;99.90
37460;DHT22;23318;50.966;5.284;2022-12-17T01:58:33;-1.70;99.90
37460;DHT22;23318;50.966;5.284;2022-12-17T02:01:17;-1.50;99.90
37460;DHT22;23318;50.966;5.284;2022-12-17T02:04:02;-1.50;99.90
37460;DHT22;23318;50.966;5.284;2022-12-17T02:12:46;-1.50;99.90
37460;DHT22;23318;50.966;5.284;2022-12-17T02:18:23;-1.50;99.90
37460;DHT22;23318;50.966;5.284;2022-12-17T02:21:09;-1.50;99.90
37460;DHT22;23318;50.966;5.284;2022-12-17T02:24:19;-1.60;99.90
37460;DHT22;23318;50.966;5.284;2022-12-17T02:27:09;-1.70;99.90
37460;DHT22;23318;50.966;5.284;2022-12-17T02:29:56;-1.70;99.90
37460;DHT22;23318;50.966;5.284;2022-12-17T02:32:44;-1.60;99.90
37460;DHT22;23318;50.966;5.284;2022-12-17T02:36:15;-1.60;99.90
37460;DHT22;23318;50.966;5.284;2022-12-17T02:38:40;-1.60;99.90
37460;DHT22;23318;50.966;5.284;2022-12-17T02:41:48;-1.50;99.90
37460;DHT22;23318;50.966;5.284;2022-12-17T02:44:34;-1.40;99.90
37460;DHT22;23318;50.966;5.284;2022-12-17T02:47:20;-1.50;99.90
37460;DHT22;23318;50.966;5.284;2022-12-17T02:50:05;-1.50;99.90
37460;DHT22;23318;50.966;5.284;2022-12-17T02:52:50;-1.70;99.90
37460;DHT22;23318;50.966;5.284;2022-12-17T02:55:35;-1.70;99.90
37460;DHT22;23318;50.966;5.284;2022-12-17T02:58:19;-1.80;99.90
37460;DHT22;23318;50.966;5.284;2022-12-17T03:01:03;-1.90;99.90
37460;DHT22;23318;50.966;5.284;2022-12-17T03:03:47;-1.80;99.90
37460;DHT22;23318;50.966;5.284;2022-12-17T03:06:32;-1.80;99.90
37460;DHT22;23318;50.966;5.284;2022-12-17T03:09:16;-2.00;99.90
37460;DHT22;23318;50.966;5.284;2022-12-17T03:12:00;-2.00;99.90
37460;DHT22;23318;50.966;5.284;2022-12-17T03:14:44;-2.10;99.90
37460;DHT22;23318;50.966;5.284;2022-12-17T03:17:29;-2.10;99.90
37460;DHT22;23318;50.966;5.284;2022-12-17T03:20:14;-2.10;99.90
37460;DHT22;23318;50.966;5.284;2022-12-17T03:23:03;-2.10;99.90
37460;DHT22;23318;50.966;5.284;2022-12-17T03:25:48;-2.00;99.90
37460;DHT22;23318;50.966;5.284;2022-12-17T03:28:33;-2.00;99.90
37460;DHT22;23318;50.966;5.284;2022-12-17T03:31:18;-2.10;99.90
37460;DHT22;23318;50.966;5.284;2022-12-17T03:34:02;-1.90;99.90
37460;DHT22;23318;50.966;5.284;2022-12-17T03:36:46;-1.80;99.90
37460;DHT22;23318;50.966;5.284;2022-12-17T03:39:31;-1.80;99.90
37460;DHT22;23318;50.966;5.284;2022-12-17T03:42:15;-1.80;99.90
37460;DHT22;23318;50.966;5.284;2022-12-17T03:44:59;-1.60;99.90
37460;DHT22;23318;50.966;5.284;2022-12-17T03:47:43;-1.40;99.90
37460;DHT22;23318;50.966;5.284;2022-12-17T03:50:28;-1.30;99.90
37460;DHT22;23318;50.966;5.284;2022-12-17T03:53:12;-1.20;99.90
37460;DHT22;23318;50.966;5.284;2022-12-17T03:55:56;-1.00;99.90
37460;DHT22;23318;50.966;5.284;2022-12-17T03:58:40;-0.80;99.90
37460;DHT22;23318;50.966;5.284;2022-12-17T04:01:41;-0.70;99.90
37460;DHT22;23318;50.966;5.284;2022-12-17T04:04:25;-0.70;99.90
37460;DHT22;23318;50.966;5.284;2022-12-17T04:07:09;-0.70;99.90
37460;DHT22;23318;50.966;5.284;2022-12-17T04:09:53;-0.70;99.90
37460;DHT22;23318;50.966;5.284;2022-12-17T04:12:38;-0.60;99.90
37460;DHT22;23318;50.966;5.284;2022-12-17T04:15:21;-0.60;99.90
37460;DHT22;23318;50.966;5.284;2022-12-17T04:18:06;-0.50;99.90
37460;DHT22;23318;50.966;5.284;2022-12-17T04:20:50;-0.60;99.90
37460;DHT22;23318;50.966;5.284;2022-12-17T04:23:34;-0.90;99.90
37460;DHT22;23318;50.966;5.284;2022-12-17T04:26:17;-0.70;99.90
37460;DHT22;23318;50.966;5.284;2022-12-17T04:29:02;-0.50;99.90
37460;DHT22;23318;50.966;5.284;2022-12-17T04:31:46;-0.30;99.90
37460;DHT22;23318;50.966;5.284;2022-12-17T04:34:30;-0.10;99.90
37460;DHT22;23318;50.966;5.284;2022-12-17T04:37:14;0.00;99.90
37460;DHT22;23318;50.966;5.284;2022-12-17T04:39:58;0.10;99.90
37460;DHT22;23318;50.966;5.284;2022-12-17T04:42:42;0.20;99.90
37460;DHT22;23318;50.966;5.284;2022-12-17T04:45:26;0.30;99.90
37460;DHT22;23318;50.966;5.284;2022-12-17T04:48:10;0.30;99.90
37460;DHT22;23318;50.966;5.284;2022-12-17T04:50:56;0.40;99.90
37460;DHT22;23318;50.966;5.284;2022-12-17T04:53:40;0.40;99.90
37460;DHT22;23318;50.966;5.284;2022-12-17T04:56:25;0.20;99.90
37460;DHT22;23318;50.966;5.284;2022-12-17T04:59:10;0.30;99.90
37460;DHT22;23318;50.966;5.284;2022-12-17T05:01:54;0.40;99.90
37460;DHT22;23318;50.966;5.284;2022-12-17T05:04:38;0.20;99.90
37460;DHT22;23318;50.966;5.284;2022-12-17T05:07:22;0.30;99.90
37460;DHT22;23318;50.966;5.284;2022-12-17T05:10:06;0.00;99.90
37460;DHT22;23318;50.966;5.284;2022-12-17T05:13:00;0.00;99.90
37460;DHT22;23318;50.966;5.284;2022-12-17T05:15:45;-0.20;99.90
37460;DHT22;23318;50.966;5.284;2022-12-17T05:18:29;-0.30;99.90
37460;DHT22;23318;50.966;5.284;2022-12-17T05:21:14;-0.60;99.90
37460;DHT22;23318;50.966;5.284;2022-12-17T05:23:58;-0.90;99.90
37460;DHT22;23318;50.966;5.284;2022-12-17T05:26:42;-1.50;99.90
37460;DHT22;23318;50.966;5.284;2022-12-17T05:29:26;-1.60;99.90
37460;DHT22;23318;50.966;5.284;2022-12-17T05:32:10;-1.60;99.90
37460;DHT22;23318;50.966;5.284;2022-12-17T05:34:54;-1.30;99.90
37460;DHT22;23318;50.966;5.284;2022-12-17T05:37:38;-1.30;99.90
37460;DHT22;23318;50.966;5.284;2022-12-17T05:40:22;-1.40;99.90
37460;DHT22;23318;50.966;5.284;2022-12-17T05:43:10;-1.40;99.90
37460;DHT22;23318;50.966;5.284;2022-12-17T05:45:55;-1.40;99.90
37460;DHT22;23318;50.966;5.284;2022-12-17T05:48:42;-1.60;99.90
37460;DHT22;23318;50.966;5.284;2022-12-17T05:51:26;-1.80;99.90
37460;DHT22;23318;50.966;5.284;2022-12-17T05:54:10;-1.90;99.90
37460;DHT22;23318;50.966;5.284;2022-12-17T05:56:54;-1.80;99.90
37460;DHT22;23318;50.966;5.284;2022-12-17T05:59:39;-1.50;99.90
37460;DHT22;23318;50.966;5.284;2022-12-17T06:02:23;-1.20;99.90
37460;DHT22;23318;50.966;5.284;2022-12-17T06:05:07;-1.10;99.90
37460;DHT22;23318;50.966;5.284;2022-12-17T06:07:51;-1.00;99.90
37460;DHT22;23318;50.966;5.284;2022-12-17T06:10:35;-0.60;99.90
37460;DHT22;23318;50.966;5.284;2022-12-17T06:13:19;-0.30;99.90
37460;DHT22;23318;50.966;5.284;2022-12-17T06:16:04;-0.10;99.90
37460;DHT22;23318;50.966;5.284;2022-12-17T06:18:48;0.00;99.90
37460;DHT22;23318;50.966;5.284;2022-12-17T06:21:32;-0.10;99.90
37460;DHT22;23318;50.966;5.284;2022-12-17T06:24:16;0.10;99.90
37460;DHT22;23318;50.966;5.284;2022-12-17T06:27:00;-0.40;99.90
37460;DHT22;23318;50.966;5.284;2022-12-17T06:29:44;-0.20;99.90
37460;DHT22;23318;50.966;5.284;2022-12-17T06:32:28;-0.20;99.90
37460;DHT22;23318;50.966;5.284;2022-12-17T06:35:12;-0.20;99.90
37460;DHT22;23318;50.966;5.284;2022-12-17T06:38:04;-0.40;99.90
37460;DHT22;23318;50.966;5.284;2022-12-17T06:40:50;-0.40;99.90
37460;DHT22;23318;50.966;5.284;2022-12-17T06:43:34;-0.20;99.90
37460;DHT22;23318;50.966;5.284;2022-12-17T06:46:19;0.10;99.90
37460;DHT22;23318;50.966;5.284;2022-12-17T06:49:02;0.20;99.90
37460;DHT22;23318;50.966;5.284;2022-12-17T06:51:47;0.40;99.90
37460;DHT22;23318;50.966;5.284;2022-12-17T06:54:31;0.40;99.90
37460;DHT22;23318;50.966;5.284;2022-12-17T06:57:14;-0.20;99.90
37460;DHT22;23318;50.966;5.284;2022-12-17T06:59:59;-0.20;99.90
37460;DHT22;23318;50.966;5.284;2022-12-17T07:02:43;0.10;99.90
37460;DHT22;23318;50.966;5.284;2022-12-17T07:05:27;0.20;99.90
37460;DHT22;23318;50.966;5.284;2022-12-17T07:08:11;0.40;99.90
37460;DHT22;23318;50.966;5.284;2022-12-17T07:10:58;0.30;99.90
37460;DHT22;23318;50.966;5.284;2022-12-17T07:13:42;0.10;99.90
37460;DHT22;23318;50.966;5.284;2022-12-17T07:16:26;-0.30;99.90
37460;DHT22;23318;50.966;5.284;2022-12-17T07:19:11;-0.50;99.90
37460;DHT22;23318;50.966;5.284;2022-12-17T07:21:55;-0.50;99.90
37460;DHT22;23318;50.966;5.284;2022-12-17T07:24:40;-0.40;99.90
37460;DHT22;23318;50.966;5.284;2022-12-17T07:27:24;-0.50;99.90
37460;DHT22;23318;50.966;5.284;2022-12-17T07:30:09;-0.60;99.90
37460;DHT22;23318;50.966;5.284;2022-12-17T07:32:58;-0.50;99.90
37460;DHT22;23318;50.966;5.284;2022-12-17T07:35:42;-0.30;99.90
37460;DHT22;23318;50.966;5.284;2022-12-17T07:38:26;-0.20;99.90
37460;DHT22;23318;50.966;5.284;2022-12-17T07:41:10;-0.20;99.90
37460;DHT22;23318;50.966;5.284;2022-12-17T07:43:54;-0.30;99.90
37460;DHT22;23318;50.966;5.284;2022-12-17T07:46:38;-0.40;99.90
37460;DHT22;23318;50.966;5.284;2022-12-17T07:49:22;-0.40;99.90
37460;DHT22;23318;50.966;5.284;2022-12-17T07:52:06;-0.40;99.90
37460;DHT22;23318;50.966;5.284;2022-12-17T07:54:51;-0.50;99.90
37460;DHT22;23318;50.966;5.284;2022-12-17T07:57:34;-0.30;99.90
37460;DHT22;23318;50.966;5.284;2022-12-17T08:00:19;-0.40;99.90
37460;DHT22;23318;50.966;5.284;2022-12-17T08:03:03;-0.80;99.90
37460;DHT22;23318;50.966;5.284;2022-12-17T08:05:47;-0.70;99.90
37460;DHT22;23318;50.966;5.284;2022-12-17T08:08:31;-0.50;99.90
37460;DHT22;23318;50.966;5.284;2022-12-17T08:11:16;-0.30;99.90
37460;DHT22;23318;50.966;5.284;2022-12-17T08:14:00;-0.20;99.90
37460;DHT22;23318;50.966;5.284;2022-12-17T08:16:44;-0.10;99.90
37460;DHT22;23318;50.966;5.284;2022-12-17T08:19:28;-0.20;99.90
37460;DHT22;23318;50.966;5.284;2022-12-17T08:22:12;-0.20;99.90
37460;DHT22;23318;50.966;5.284;2022-12-17T08:24:56;-0.30;99.90
37460;DHT22;23318;50.966;5.284;2022-12-17T08:27:58;-0.10;99.90
37460;DHT22;23318;50.966;5.284;2022-12-17T08:30:46;0.20;99.90
37460;DHT22;23318;50.966;5.284;2022-12-17T08:33:31;0.30;99.90
37460;DHT22;23318;50.966;5.284;2022-12-17T08:36:15;0.20;99.90
37460;DHT22;23318;50.966;5.284;2022-12-17T08:38:59;0.20;99.90
37460;DHT22;23318;50.966;5.284;2022-12-17T08:41:43;-0.40;99.90
37460;DHT22;23318;50.966;5.284;2022-12-17T08:44:27;-0.30;99.90
37460;DHT22;23318;50.966;5.284;2022-12-17T08:47:12;-0.20;99.90
37460;DHT22;23318;50.966;5.284;2022-12-17T08:49:56;0.00;99.90
37460;DHT22;23318;50.966;5.284;2022-12-17T08:52:40;0.10;99.90
37460;DHT22;23318;50.966;5.284;2022-12-17T08:55:24;0.10;99.90
37460;DHT22;23318;50.966;5.284;2022-12-17T08:58:08;-0.20;99.90
37460;DHT22;23318;50.966;5.284;2022-12-17T09:00:52;-0.60;99.90
37460;DHT22;23318;50.966;5.284;2022-12-17T09:03:36;-0.70;99.90
37460;DHT22;23318;50.966;5.284;2022-12-17T09:06:20;-0.80;99.90
37460;DHT22;23318;50.966;5.284;2022-12-17T09:09:04;-1.00;99.90
37460;DHT22;23318;50.966;5.284;2022-12-17T09:11:48;-1.20;99.90
37460;DHT22;23318;50.966;5.284;2022-12-17T09:14:32;-1.20;99.90
37460;DHT22;23318;50.966;5.284;2022-12-17T09:17:17;-1.20;99.90
37460;DHT22;23318;50.966;5.284;2022-12-17T09:20:01;-1.10;99.90
37460;DHT22;23318;50.966;5.284;2022-12-17T09:22:45;-0.70;99.90
37460;DHT22;23318;50.966;5.284;2022-12-17T09:25:29;-0.40;99.90
37460;DHT22;23318;50.966;5.284;2022-12-17T09:28:13;-0.50;99.90
37460;DHT22;23318;50.966;5.284;2022-12-17T09:30:58;-0.90;99.90
37460;DHT22;23318;50.966;5.284;2022-12-17T09:33:44;-0.50;99.90
37460;DHT22;23318;50.966;5.284;2022-12-17T09:36:28;-0.70;99.90
37460;DHT22;23318;50.966;5.284;2022-12-17T09:39:13;-0.50;99.90
37460;DHT22;23318;50.966;5.284;2022-12-17T09:44:52;-0.70;99.90
37460;DHT22;23318;50.966;5.284;2022-12-17T09:50:26;-1.30;99.90
37460;DHT22;23318;50.966;5.284;2022-12-17T09:53:20;-1.10;99.90
37460;DHT22;23318;50.966;5.284;2022-12-17T09:56:09;-0.60;99.90
37460;DHT22;23318;50.966;5.284;2022-12-17T09:58:55;-0.50;99.90
37460;DHT22;23318;50.966;5.284;2022-12-17T10:01:39;-0.40;99.90
37460;DHT22;23318;50.966;5.284;2022-12-17T10:04:32;-0.20;99.90
37460;DHT22;23318;50.966;5.284;2022-12-17T10:07:23;-0.40;99.90
37460;DHT22;23318;50.966;5.284;2022-12-17T10:10:30;-0.40;99.90
37460;DHT22;23318;50.966;5.284;2022-12-17T10:13:20;-0.60;99.90
37460;DHT22;23318;50.966;5.284;2022-12-17T10:16:32;-0.40;99.90
37460;DHT22;23318;50.966;5.284;2022-12-17T10:19:33;-0.70;99.90
37460;DHT22;23318;50.966;5.284;2022-12-17T10:22:20;-1.10;99.90
37460;DHT22;23318;50.966;5.284;2022-12-17T10:25:06;-0.60;99.90
37460;DHT22;23318;50.966;5.284;2022-12-17T10:27:50;-0.70;99.90
37460;DHT22;23318;50.966;5.284;2022-12-17T10:30:35;-0.90;99.90
37460;DHT22;23318;50.966;5.284;2022-12-17T10:33:20;-0.80;99.90
37460;DHT22;23318;50.966;5.284;2022-12-17T10:36:18;-0.80;99.90
37460;DHT22;23318;50.966;5.284;2022-12-17T10:39:03;-0.70;99.90
37460;DHT22;23318;50.966;5.284;2022-12-17T10:41:47;-0.70;99.90
37460;DHT22;23318;50.966;5.284;2022-12-17T10:44:36;-0.80;99.90
37460;DHT22;23318;50.966;5.284;2022-12-17T10:47:25;-0.70;99.90
37460;DHT22;23318;50.966;5.284;2022-12-17T10:50:15;-0.90;99.90
37460;DHT22;23318;50.966;5.284;2022-12-17T10:53:00;-0.90;99.90
37460;DHT22;23318;50.966;5.284;2022-12-17T10:55:53;-1.00;99.90
37460;DHT22;23318;50.966;5.284;2022-12-17T10:58:46;-0.90;99.90
37460;DHT22;23318;50.966;5.284;2022-12-17T11:01:32;-0.90;99.90
37460;DHT22;23318;50.966;5.284;2022-12-17T11:04:31;-1.00;99.90
37460;DHT22;23318;50.966;5.284;2022-12-17T11:07:30;-1.30;99.90
37460;DHT22;23318;50.966;5.284;2022-12-17T11:10:20;-1.30;99.90
37460;DHT22;23318;50.966;5.284;2022-12-17T11:13:26;-0.80;99.90
37460;DHT22;23318;50.966;5.284;2022-12-17T11:16:26;-0.80;99.90
37460;DHT22;23318;50.966;5.284;2022-12-17T11:21:56;-0.80;99.90
37460;DHT22;23318;50.966;5.284;2022-12-17T11:25:04;-1.00;99.90
37460;DHT22;23318;50.966;5.284;2022-12-17T11:28:04;-0.80;99.90
37460;DHT22;23318;50.966;5.284;2022-12-17T11:30:57;-1.00;99.90
37460;DHT22;23318;50.966;5.284;2022-12-17T11:33:52;-1.20;99.90
37460;DHT22;23318;50.966;5.284;2022-12-17T11:42:59;-0.50;99.90
37460;DHT22;23318;50.966;5.284;2022-12-17T11:48:58;-0.10;99.90
37460;DHT22;23318;50.966;5.284;2022-12-17T11:51:51;-0.30;99.90
37460;DHT22;23318;50.966;5.284;2022-12-17T11:54:59;-0.80;99.90
37460;DHT22;23318;50.966;5.284;2022-12-17T11:57:57;-0.80;99.90
37460;DHT22;23318;50.966;5.284;2022-12-17T12:10:18;-0.20;99.90
37460;DHT22;23318;50.966;5.284;2022-12-17T12:13:17;-0.50;99.90
37460;DHT22;23318;50.966;5.284;2022-12-17T12:19:42;-0.20;99.90
37460;DHT22;23318;50.966;5.284;2022-12-17T12:26:18;-0.10;99.90
37460;DHT22;23318;50.966;5.284;2022-12-17T12:32:21;0.00;99.90
37460;DHT22;23318;50.966;5.284;2022-12-17T12:35:15;-0.30;99.90
37460;DHT22;23318;50.966;5.284;2022-12-17T12:38:01;-0.40;99.90
37460;DHT22;23318;50.966;5.284;2022-12-17T12:40:59;0.10;99.90
37460;DHT22;23318;50.966;5.284;2022-12-17T12:43:51;0.30;99.90
37460;DHT22;23318;50.966;5.284;2022-12-17T12:46:40;0.60;99.90
37460;DHT22;23318;50.966;5.284;2022-12-17T12:49:59;0.70;99.90
37460;DHT22;23318;50.966;5.284;2022-12-17T12:52:45;0.50;99.90
37460;DHT22;23318;50.966;5.284;2022-12-17T12:55:40;0.50;99.90
37460;DHT22;23318;50.966;5.284;2022-12-17T12:58:35;0.10;99.90
37460;DHT22;23318;50.966;5.284;2022-12-17T13:01:31;0.20;99.90
37460;DHT22;23318;50.966;5.284;2022-12-17T13:04:32;0.30;99.90
37460;DHT22;23318;50.966;5.284;2022-12-17T13:07:22;0.40;99.90
37460;DHT22;23318;50.966;5.284;2022-12-17T13:09:51;0.70;99.90
37460;DHT22;23318;50.966;5.284;2022-12-17T13:12:45;0.90;99.90
37460;DHT22;23318;50.966;5.284;2022-12-17T13:15:19;1.10;99.90
37460;DHT22;23318;50.966;5.284;2022-12-17T13:20:41;1.40;99.90
37460;DHT22;23318;50.966;5.284;2022-12-17T13:27:03;2.50;99.90
37460;DHT22;23318;50.966;5.284;2022-12-17T13:32:05;4.20;99.90
37460;DHT22;23318;50.966;5.284;2022-12-17T13:42:32;5.00;99.50
37460;DHT22;23318;50.966;5.284;2022-12-17T13:45:00;5.60;98.70
37460;DHT22;23318;50.966;5.284;2022-12-17T13:47:29;6.00;98.50
37460;DHT22;23318;50.966;5.284;2022-12-17T13:49:59;6.00;98.00
37460;DHT22;23318;50.966;5.284;2022-12-17T13:52:29;5.20;98.20
37460;DHT22;23318;50.966;5.284;2022-12-17T13:55:08;3.90;98.90
37460;DHT22;23318;50.966;5.284;2022-12-17T13:57:35;3.20;99.70
37460;DHT22;23318;50.966;5.284;2022-12-17T14:00:02;2.80;99.90
37460;DHT22;23318;50.966;5.284;2022-12-17T14:02:30;2.40;99.90
37460;DHT22;23318;50.966;5.284;2022-12-17T14:05:01;2.00;99.90
37460;DHT22;23318;50.966;5.284;2022-12-17T14:07:28;1.50;99.90
37460;DHT22;23318;50.966;5.284;2022-12-17T14:09:55;1.60;99.90
37460;DHT22;23318;50.966;5.284;2022-12-17T14:12:24;1.90;99.90
37460;DHT22;23318;50.966;5.284;2022-12-17T14:14:56;2.30;99.90
37460;DHT22;23318;50.966;5.284;2022-12-17T14:17:56;2.70;99.90
37460;DHT22;23318;50.966;5.284;2022-12-17T14:20:21;3.20;99.90
37460;DHT22;23318;50.966;5.284;2022-12-17T14:22:53;3.60;99.90
37460;DHT22;23318;50.966;5.284;2022-12-17T14:25:26;3.80;99.90
37460;DHT22;23318;50.966;5.284;2022-12-17T14:27:59;3.80;99.90
37460;DHT22;23318;50.966;5.284;2022-12-17T14:30:37;4.00;99.80
37460;DHT22;23318;50.966;5.284;2022-12-17T14:33:18;4.00;99.50
37460;DHT22;23318;50.966;5.284;2022-12-17T14:35:51;3.40;99.90
37460;DHT22;23318;50.966;5.284;2022-12-17T14:38:17;3.40;99.90
37460;DHT22;23318;50.966;5.284;2022-12-17T14:40:43;3.50;99.90
37460;DHT22;23318;50.966;5.284;2022-12-17T14:43:12;3.30;99.90
37460;DHT22;23318;50.966;5.284;2022-12-17T14:45:38;3.20;99.90
37460;DHT22;23318;50.966;5.284;2022-12-17T14:48:24;3.20;99.90
37460;DHT22;23318;50.966;5.284;2022-12-17T14:51:26;3.30;99.90
37460;DHT22;23318;50.966;5.284;2022-12-17T14:53:55;3.20;99.90
37460;DHT22;23318;50.966;5.284;2022-12-17T14:56:29;3.10;99.90
37460;DHT22;23318;50.966;5.284;2022-12-17T14:58:54;2.90;99.90
37460;DHT22;23318;50.966;5.284;2022-12-17T15:01:20;2.40;99.90
37460;DHT22;23318;50.966;5.284;2022-12-17T15:03:46;2.10;99.90
37460;DHT22;23318;50.966;5.284;2022-12-17T15:06:15;1.90;99.90
37460;DHT22;23318;50.966;5.284;2022-12-17T15:08:44;1.70;99.90
37460;DHT22;23318;50.966;5.284;2022-12-17T15:11:13;1.60;99.90
37460;DHT22;23318;50.966;5.284;2022-12-17T15:13:39;1.20;99.90
37460;DHT22;23318;50.966;5.284;2022-12-17T15:16:05;0.90;99.90
37460;DHT22;23318;50.966;5.284;2022-12-17T15:18:31;0.60;99.90
37460;DHT22;23318;50.966;5.284;2022-12-17T15:20:57;0.50;99.90
37460;DHT22;23318;50.966;5.284;2022-12-17T15:23:24;0.30;99.90
37460;DHT22;23318;50.966;5.284;2022-12-17T15:25:52;0.30;99.90
37460;DHT22;23318;50.966;5.284;2022-12-17T15:28:19;0.20;99.90
37460;DHT22;23318;50.966;5.284;2022-12-17T15:30:46;0.00;99.90
37460;DHT22;23318;50.966;5.284;2022-12-17T15:33:13;-0.10;99.90
37460;DHT22;23318;50.966;5.284;2022-12-17T15:35:39;-0.20;99.90
37460;DHT22;23318;50.966;5.284;2022-12-17T15:38:05;-0.40;99.90
37460;DHT22;23318;50.966;5.284;2022-12-17T15:40:31;-0.40;99.90
37460;DHT22;23318;50.966;5.284;2022-12-17T15:42:57;-0.60;99.90
37460;DHT22;23318;50.966;5.284;2022-12-17T15:45:44;-0.60;99.90
37460;DHT22;23318;50.966;5.284;2022-12-17T15:48:11;-0.60;99.90
37460;DHT22;23318;50.966;5.284;2022-12-17T15:50:38;-0.60;99.90
37460;DHT22;23318;50.966;5.284;2022-12-17T15:53:03;-0.80;99.90
37460;DHT22;23318;50.966;5.284;2022-12-17T15:55:29;-0.70;99.90
37460;DHT22;23318;50.966;5.284;2022-12-17T15:57:56;-0.60;99.90
37460;DHT22;23318;50.966;5.284;2022-12-17T16:00:22;-0.60;99.90
37460;DHT22;23318;50.966;5.284;2022-12-17T16:02:49;-0.70;99.90
37460;DHT22;23318;50.966;5.284;2022-12-17T16:05:14;-0.80;99.90
37460;DHT22;23318;50.966;5.284;2022-12-17T16:07:40;-0.80;99.90
37460;DHT22;23318;50.966;5.284;2022-12-17T16:10:09;-0.90;99.90
37460;DHT22;23318;50.966;5.284;2022-12-17T16:12:34;-1.00;99.90
37460;DHT22;23318;50.966;5.284;2022-12-17T16:15:00;-0.90;99.90
37460;DHT22;23318;50.966;5.284;2022-12-17T16:17:26;-1.10;99.90
37460;DHT22;23318;50.966;5.284;2022-12-17T16:19:52;-1.10;99.90
37460;DHT22;23318;50.966;5.284;2022-12-17T16:22:18;-1.10;99.90
37460;DHT22;23318;50.966;5.284;2022-12-17T16:24:43;-1.20;99.90
37460;DHT22;23318;50.966;5.284;2022-12-17T16:27:09;-1.30;99.90
37460;DHT22;23318;50.966;5.284;2022-12-17T16:29:35;-1.40;99.90
37460;DHT22;23318;50.966;5.284;2022-12-17T16:32:00;-1.50;99.90
37460;DHT22;23318;50.966;5.284;2022-12-17T16:34:26;-1.40;99.90
37460;DHT22;23318;50.966;5.284;2022-12-17T16:36:52;-1.50;99.90
37460;DHT22;23318;50.966;5.284;2022-12-17T16:39:18;-1.50;99.90
37460;DHT22;23318;50.966;5.284;2022-12-17T16:41:45;-1.60;99.90
37460;DHT22;23318;50.966;5.284;2022-12-17T16:44:11;-1.60;99.90
37460;DHT22;23318;50.966;5.284;2022-12-17T16:46:39;-1.60;99.90
37460;DHT22;23318;50.966;5.284;2022-12-17T16:49:10;-1.60;99.90
37460;DHT22;23318;50.966;5.284;2022-12-17T16:51:37;-1.40;99.90
37460;DHT22;23318;50.966;5.284;2022-12-17T16:54:10;-1.40;99.90
37460;DHT22;23318;50.966;5.284;2022-12-17T16:56:37;-1.40;99.90
37460;DHT22;23318;50.966;5.284;2022-12-17T16:59:04;-1.40;99.90
37460;DHT22;23318;50.966;5.284;2022-12-17T17:01:32;-1.60;99.90
37460;DHT22;23318;50.966;5.284;2022-12-17T17:03:58;-1.70;99.90
37460;DHT22;23318;50.966;5.284;2022-12-17T17:06:24;-1.70;99.90
37460;DHT22;23318;50.966;5.284;2022-12-17T17:08:50;-1.70;99.90
37460;DHT22;23318;50.966;5.284;2022-12-17T17:11:21;-1.80;99.90
37460;DHT22;23318;50.966;5.284;2022-12-17T17:13:48;-1.80;99.90
37460;DHT22;23318;50.966;5.284;2022-12-17T17:16:15;-1.90;99.90
37460;DHT22;23318;50.966;5.284;2022-12-17T17:18:41;-1.90;99.90
37460;DHT22;23318;50.966;5.284;2022-12-17T17:23:46;-2.00;99.90
37460;DHT22;23318;50.966;5.284;2022-12-17T17:26:13;-2.00;99.90
37460;DHT22;23318;50.966;5.284;2022-12-17T17:28:39;-2.00;99.90
37460;DHT22;23318;50.966;5.284;2022-12-17T17:31:09;-2.00;99.90
37460;DHT22;23318;50.966;5.284;2022-12-17T17:33:36;-2.00;99.90
37460;DHT22;23318;50.966;5.284;2022-12-17T17:36:04;-2.10;99.90
37460;DHT22;23318;50.966;5.284;2022-12-17T17:38:34;-2.10;99.90
37460;DHT22;23318;50.966;5.284;2022-12-17T17:41:00;-2.20;99.90
37460;DHT22;23318;50.966;5.284;2022-12-17T17:43:26;-2.30;99.90
37460;DHT22;23318;50.966;5.284;2022-12-17T17:45:51;-2.30;99.90
37460;DHT22;23318;50.966;5.284;2022-12-17T17:48:18;-2.30;99.90
37460;DHT22;23318;50.966;5.284;2022-12-17T17:50:59;-2.20;99.90
37460;DHT22;23318;50.966;5.284;2022-12-17T17:53:25;-2.30;99.90
37460;DHT22;23318;50.966;5.284;2022-12-17T17:55:51;-2.30;99.90
37460;DHT22;23318;50.966;5.284;2022-12-17T17:58:16;-2.30;99.90
37460;DHT22;23318;50.966;5.284;2022-12-17T18:00:42;-2.30;99.90
37460;DHT22;23318;50.966;5.284;2022-12-17T18:03:07;-2.50;99.90
37460;DHT22;23318;50.966;5.284;2022-12-17T18:05:37;-2.50;99.90
37460;DHT22;23318;50.966;5.284;2022-12-17T18:08:03;-2.40;99.90
37460;DHT22;23318;50.966;5.284;2022-12-17T18:10:29;-2.40;99.90
37460;DHT22;23318;50.966;5.284;2022-12-17T18:12:55;-2.50;99.90
37460;DHT22;23318;50.966;5.284;2022-12-17T18:15:39;-2.40;99.90